sensor_id;sensor_type;location;lat;lon;timestamp;P1;durP1;ratioP1;P2;durP2;ratioP2
20454;SDS011;10386;54.314;10.022;2023-09-12T00:01:20;66.40;;;34.25;;
20454;SDS011;10386;54.314;10.022;2023-09-12T00:03:47;63.95;;;33.38;;
20454;SDS011;10386;54.314;10.022;2023-09-12T00:06:14;66.90;;;34.28;;
20454;SDS011;10386;54.314;10.022;2023-09-12T00:08:41;65.05;;;36.10;;
20454;SDS011;10386;54.314;10.022;2023-09-12T00:11:09;55.85;;;32.47;;
20454;SDS011;10386;54.314;10.022;2023-09-12T00:13:39;70.38;;;32.80;;
20454;SDS011;10386;54.314;10.022;2023-09-12T00:16:07;67.93;;;31.67;;
20454;SDS011;10386;54.314;10.022;2023-09-12T00:18:38;52.97;;;29.38;;
20454;SDS011;10386;54.314;10.022;2023-09-12T00:21:06;51.08;;;29.00;;
20454;SDS011;10386;54.314;10.022;2023-09-12T00:23:33;57.13;;;29.23;;
20454;SDS011;10386;54.314;10.022;2023-09-12T00:26:00;55.42;;;30.30;;
20454;SDS011;10386;54.314;10.022;2023-09-12T00:28:27;59.78;;;30.23;;
20454;SDS011;10386;54.314;10.022;2023-09-12T00:30:54;53.25;;;28.70;;
20454;SDS011;10386;54.314;10.022;2023-09-12T00:33:21;52.05;;;27.20;;
20454;SDS011;10386;54.314;10.022;2023-09-12T00:35:48;51.25;;;27.20;;
20454;SDS011;10386;54.314;10.022;2023-09-12T00:38:15;52.42;;;27.52;;
20454;SDS011;10386;54.314;10.022;2023-09-12T00:40:42;54.50;;;28.17;;
20454;SDS011;10386;54.314;10.022;2023-09-12T00:43:09;51.40;;;26.80;;
20454;SDS011;10386;54.314;10.022;2023-09-12T00:45:36;52.30;;;26.45;;
20454;SDS011;10386;54.314;10.022;2023-09-12T00:48:04;51.47;;;26.58;;
20454;SDS011;10386;54.314;10.022;2023-09-12T00:50:32;52.92;;;27.60;;
20454;SDS011;10386;54.314;10.022;2023-09-12T00:53:00;52.08;;;27.35;;
20454;SDS011;10386;54.314;10.022;2023-09-12T00:55:29;49.88;;;26.15;;
20454;SDS011;10386;54.314;10.022;2023-09-12T00:57:59;49.05;;;26.70;;
20454;SDS011;10386;54.314;10.022;2023-09-12T01:00:27;56.55;;;28.35;;
20454;SDS011;10386;54.314;10.022;2023-09-12T01:02:54;62.60;;;29.50;;
20454;SDS011;10386;54.314;10.022;2023-09-12T01:05:22;63.60;;;26.65;;
20454;SDS011;10386;54.314;10.022;2023-09-12T01:07:49;58.83;;;28.75;;
20454;SDS011;10386;54.314;10.022;2023-09-12T01:10:16;57.47;;;28.20;;
20454;SDS011;10386;54.314;10.022;2023-09-12T01:12:44;54.22;;;26.42;;
20454;SDS011;10386;54.314;10.022;2023-09-12T01:15:11;55.85;;;26.55;;
20454;SDS011;10386;54.314;10.022;2023-09-12T01:17:41;55.00;;;27.27;;
20454;SDS011;10386;54.314;10.022;2023-09-12T01:20:14;65.90;;;27.38;;
20454;SDS011;10386;54.314;10.022;2023-09-12T01:25:40;60.13;;;28.30;;
20454;SDS011;10386;54.314;10.022;2023-09-12T01:28:18;57.88;;;27.83;;
20454;SDS011;10386;54.314;10.022;2023-09-12T01:30:46;60.15;;;27.63;;
20454;SDS011;10386;54.314;10.022;2023-09-12T01:33:15;61.47;;;27.38;;
20454;SDS011;10386;54.314;10.022;2023-09-12T01:35:42;66.30;;;27.00;;
20454;SDS011;10386;54.314;10.022;2023-09-12T01:38:09;61.38;;;27.80;;
20454;SDS011;10386;54.314;10.022;2023-09-12T01:40:39;63.22;;;27.80;;
20454;SDS011;10386;54.314;10.022;2023-09-12T01:43:12;61.28;;;28.60;;
20454;SDS011;10386;54.314;10.022;2023-09-12T01:45:44;63.35;;;26.73;;
20454;SDS011;10386;54.314;10.022;2023-09-12T01:48:12;60.25;;;27.73;;
20454;SDS011;10386;54.314;10.022;2023-09-12T01:50:40;63.00;;;26.98;;
20454;SDS011;10386;54.314;10.022;2023-09-12T01:53:07;62.67;;;27.98;;
20454;SDS011;10386;54.314;10.022;2023-09-12T01:55:34;59.88;;;27.02;;
20454;SDS011;10386;54.314;10.022;2023-09-12T01:58:02;65.97;;;28.60;;
20454;SDS011;10386;54.314;10.022;2023-09-12T02:00:29;59.25;;;27.00;;
20454;SDS011;10386;54.314;10.022;2023-09-12T02:02:56;53.72;;;24.70;;
20454;SDS011;10386;54.314;10.022;2023-09-12T02:05:23;59.58;;;26.13;;
20454;SDS011;10386;54.314;10.022;2023-09-12T02:07:50;60.60;;;25.80;;
20454;SDS011;10386;54.314;10.022;2023-09-12T02:10:17;60.58;;;25.65;;
20454;SDS011;10386;54.314;10.022;2023-09-12T02:12:44;60.05;;;25.25;;
20454;SDS011;10386;54.314;10.022;2023-09-12T02:15:10;64.68;;;27.13;;
20454;SDS011;10386;54.314;10.022;2023-09-12T02:17:39;62.15;;;26.38;;
20454;SDS011;10386;54.314;10.022;2023-09-12T02:20:09;58.60;;;25.50;;
20454;SDS011;10386;54.314;10.022;2023-09-12T02:22:36;54.25;;;24.83;;
20454;SDS011;10386;54.314;10.022;2023-09-12T02:25:03;56.42;;;24.67;;
20454;SDS011;10386;54.314;10.022;2023-09-12T02:27:31;60.05;;;24.70;;
20454;SDS011;10386;54.314;10.022;2023-09-12T02:29:58;53.15;;;23.60;;
20454;SDS011;10386;54.314;10.022;2023-09-12T02:32:25;47.70;;;22.55;;
20454;SDS011;10386;54.314;10.022;2023-09-12T02:34:52;49.70;;;22.55;;
20454;SDS011;10386;54.314;10.022;2023-09-12T02:37:19;47.28;;;21.90;;
20454;SDS011;10386;54.314;10.022;2023-09-12T02:39:46;45.13;;;21.13;;
20454;SDS011;10386;54.314;10.022;2023-09-12T02:42:13;49.45;;;21.05;;
20454;SDS011;10386;54.314;10.022;2023-09-12T02:44:40;40.60;;;19.85;;
20454;SDS011;10386;54.314;10.022;2023-09-12T02:47:07;42.05;;;19.02;;
20454;SDS011;10386;54.314;10.022;2023-09-12T02:49:33;36.13;;;19.48;;
20454;SDS011;10386;54.314;10.022;2023-09-12T02:52:00;43.72;;;20.33;;
20454;SDS011;10386;54.314;10.022;2023-09-12T02:54:28;38.33;;;20.48;;
20454;SDS011;10386;54.314;10.022;2023-09-12T02:56:55;37.78;;;19.00;;
20454;SDS011;10386;54.314;10.022;2023-09-12T02:59:21;36.28;;;19.02;;
20454;SDS011;10386;54.314;10.022;2023-09-12T03:01:48;36.88;;;19.63;;
20454;SDS011;10386;54.314;10.022;2023-09-12T03:04:15;41.22;;;19.15;;
20454;SDS011;10386;54.314;10.022;2023-09-12T03:06:42;37.95;;;19.38;;
20454;SDS011;10386;54.314;10.022;2023-09-12T03:09:13;41.90;;;20.05;;
20454;SDS011;10386;54.314;10.022;2023-09-12T03:11:40;37.42;;;19.85;;
20454;SDS011;10386;54.314;10.022;2023-09-12T03:14:06;42.70;;;20.65;;
20454;SDS011;10386;54.314;10.022;2023-09-12T03:16:33;38.35;;;19.00;;
20454;SDS011;10386;54.314;10.022;2023-09-12T03:19:00;38.28;;;19.30;;
20454;SDS011;10386;54.314;10.022;2023-09-12T03:21:28;38.65;;;19.42;;
20454;SDS011;10386;54.314;10.022;2023-09-12T03:23:55;43.83;;;21.10;;
20454;SDS011;10386;54.314;10.022;2023-09-12T03:26:22;39.15;;;20.30;;
20454;SDS011;10386;54.314;10.022;2023-09-12T03:28:49;44.28;;;20.77;;
20454;SDS011;10386;54.314;10.022;2023-09-12T03:31:17;41.58;;;19.95;;
20454;SDS011;10386;54.314;10.022;2023-09-12T03:33:44;40.88;;;19.95;;
20454;SDS011;10386;54.314;10.022;2023-09-12T03:36:16;41.28;;;20.45;;
20454;SDS011;10386;54.314;10.022;2023-09-12T03:38:46;46.95;;;22.08;;
20454;SDS011;10386;54.314;10.022;2023-09-12T03:41:13;44.85;;;21.25;;
20454;SDS011;10386;54.314;10.022;2023-09-12T03:43:40;44.88;;;21.20;;
20454;SDS011;10386;54.314;10.022;2023-09-12T03:46:07;48.08;;;21.65;;
20454;SDS011;10386;54.314;10.022;2023-09-12T03:48:33;44.22;;;21.98;;
20454;SDS011;10386;54.314;10.022;2023-09-12T03:51:03;48.95;;;21.25;;
20454;SDS011;10386;54.314;10.022;2023-09-12T03:53:30;42.22;;;21.42;;
20454;SDS011;10386;54.314;10.022;2023-09-12T03:55:58;43.72;;;21.58;;
20454;SDS011;10386;54.314;10.022;2023-09-12T03:58:25;44.20;;;21.30;;
20454;SDS011;10386;54.314;10.022;2023-09-12T04:00:52;44.35;;;21.77;;
20454;SDS011;10386;54.314;10.022;2023-09-12T04:03:19;46.40;;;22.00;;
20454;SDS011;10386;54.314;10.022;2023-09-12T04:05:48;45.13;;;22.58;;
20454;SDS011;10386;54.314;10.022;2023-09-12T04:08:14;43.50;;;22.50;;
20454;SDS011;10386;54.314;10.022;2023-09-12T04:10:42;44.42;;;22.92;;
20454;SDS011;10386;54.314;10.022;2023-09-12T04:13:09;45.85;;;22.02;;
20454;SDS011;10386;54.314;10.022;2023-09-12T04:15:36;55.00;;;23.25;;
20454;SDS011;10386;54.314;10.022;2023-09-12T04:18:03;48.70;;;23.55;;
20454;SDS011;10386;54.314;10.022;2023-09-12T04:20:31;56.85;;;23.45;;
20454;SDS011;10386;54.314;10.022;2023-09-12T04:23:00;47.65;;;23.27;;
20454;SDS011;10386;54.314;10.022;2023-09-12T04:25:32;50.92;;;24.30;;
20454;SDS011;10386;54.314;10.022;2023-09-12T04:27:59;51.58;;;22.88;;
20454;SDS011;10386;54.314;10.022;2023-09-12T04:30:26;44.95;;;22.17;;
20454;SDS011;10386;54.314;10.022;2023-09-12T04:32:53;54.05;;;24.77;;
20454;SDS011;10386;54.314;10.022;2023-09-12T04:35:20;52.10;;;23.20;;
20454;SDS011;10386;54.314;10.022;2023-09-12T04:37:47;50.53;;;23.63;;
20454;SDS011;10386;54.314;10.022;2023-09-12T04:40:14;48.95;;;22.92;;
20454;SDS011;10386;54.314;10.022;2023-09-12T04:42:41;53.28;;;23.52;;
20454;SDS011;10386;54.314;10.022;2023-09-12T04:45:08;51.13;;;22.60;;
20454;SDS011;10386;54.314;10.022;2023-09-12T04:47:36;51.10;;;24.20;;
20454;SDS011;10386;54.314;10.022;2023-09-12T04:50:03;52.22;;;23.15;;
20454;SDS011;10386;54.314;10.022;2023-09-12T04:52:30;54.38;;;24.05;;
20454;SDS011;10386;54.314;10.022;2023-09-12T04:54:59;51.05;;;25.08;;
20454;SDS011;10386;54.314;10.022;2023-09-12T04:57:27;54.08;;;24.05;;
20454;SDS011;10386;54.314;10.022;2023-09-12T04:59:57;52.63;;;25.70;;
20454;SDS011;10386;54.314;10.022;2023-09-12T05:02:27;57.03;;;25.55;;
20454;SDS011;10386;54.314;10.022;2023-09-12T05:04:54;56.45;;;24.02;;
20454;SDS011;10386;54.314;10.022;2023-09-12T05:07:20;59.50;;;24.65;;
20454;SDS011;10386;54.314;10.022;2023-09-12T05:09:49;60.08;;;25.05;;
20454;SDS011;10386;54.314;10.022;2023-09-12T05:12:15;58.67;;;25.48;;
20454;SDS011;10386;54.314;10.022;2023-09-12T05:14:42;66.22;;;28.15;;
20454;SDS011;10386;54.314;10.022;2023-09-12T05:17:09;59.50;;;26.85;;
20454;SDS011;10386;54.314;10.022;2023-09-12T05:19:36;60.70;;;26.65;;
20454;SDS011;10386;54.314;10.022;2023-09-12T05:22:03;61.50;;;27.63;;
20454;SDS011;10386;54.314;10.022;2023-09-12T05:24:29;64.82;;;27.48;;
20454;SDS011;10386;54.314;10.022;2023-09-12T05:26:56;60.88;;;27.23;;
20454;SDS011;10386;54.314;10.022;2023-09-12T05:29:23;69.43;;;27.50;;
20454;SDS011;10386;54.314;10.022;2023-09-12T05:31:50;62.50;;;27.60;;
20454;SDS011;10386;54.314;10.022;2023-09-12T05:34:17;64.63;;;27.63;;
20454;SDS011;10386;54.314;10.022;2023-09-12T05:36:44;61.85;;;25.85;;
20454;SDS011;10386;54.314;10.022;2023-09-12T05:39:11;62.67;;;27.45;;
20454;SDS011;10386;54.314;10.022;2023-09-12T05:41:40;56.83;;;26.02;;
20454;SDS011;10386;54.314;10.022;2023-09-12T05:44:07;63.42;;;27.42;;
20454;SDS011;10386;54.314;10.022;2023-09-12T05:46:33;59.72;;;25.80;;
20454;SDS011;10386;54.314;10.022;2023-09-12T05:49:00;60.03;;;26.63;;
20454;SDS011;10386;54.314;10.022;2023-09-12T05:51:27;61.47;;;26.60;;
20454;SDS011;10386;54.314;10.022;2023-09-12T05:53:54;69.25;;;27.08;;
20454;SDS011;10386;54.314;10.022;2023-09-12T05:56:21;62.15;;;27.17;;
20454;SDS011;10386;54.314;10.022;2023-09-12T05:58:48;57.53;;;27.33;;
20454;SDS011;10386;54.314;10.022;2023-09-12T06:01:16;63.17;;;28.70;;
20454;SDS011;10386;54.314;10.022;2023-09-12T06:03:43;62.53;;;29.05;;
20454;SDS011;10386;54.314;10.022;2023-09-12T06:06:11;68.68;;;28.77;;
20454;SDS011;10386;54.314;10.022;2023-09-12T06:08:38;61.08;;;27.45;;
20454;SDS011;10386;54.314;10.022;2023-09-12T06:11:05;61.38;;;28.20;;
20454;SDS011;10386;54.314;10.022;2023-09-12T06:13:32;64.90;;;28.95;;
20454;SDS011;10386;54.314;10.022;2023-09-12T06:16:02;62.22;;;28.40;;
20454;SDS011;10386;54.314;10.022;2023-09-12T06:18:28;58.47;;;27.33;;
20454;SDS011;10386;54.314;10.022;2023-09-12T06:20:58;67.20;;;28.77;;
20454;SDS011;10386;54.314;10.022;2023-09-12T06:23:25;65.10;;;28.88;;
20454;SDS011;10386;54.314;10.022;2023-09-12T06:25:52;64.03;;;28.70;;
20454;SDS011;10386;54.314;10.022;2023-09-12T06:28:28;66.38;;;28.02;;
20454;SDS011;10386;54.314;10.022;2023-09-12T06:30:57;72.53;;;30.48;;
20454;SDS011;10386;54.314;10.022;2023-09-12T06:33:26;69.10;;;27.85;;
20454;SDS011;10386;54.314;10.022;2023-09-12T06:35:53;67.55;;;30.25;;
20454;SDS011;10386;54.314;10.022;2023-09-12T06:38:21;66.75;;;30.80;;
20454;SDS011;10386;54.314;10.022;2023-09-12T06:40:49;63.15;;;28.73;;
20454;SDS011;10386;54.314;10.022;2023-09-12T06:43:16;65.50;;;28.55;;
20454;SDS011;10386;54.314;10.022;2023-09-12T06:45:43;62.28;;;28.00;;
20454;SDS011;10386;54.314;10.022;2023-09-12T06:48:10;60.72;;;27.98;;
20454;SDS011;10386;54.314;10.022;2023-09-12T06:50:37;64.55;;;29.08;;
20454;SDS011;10386;54.314;10.022;2023-09-12T06:53:05;58.67;;;27.02;;
20454;SDS011;10386;54.314;10.022;2023-09-12T06:55:36;58.45;;;28.83;;
20454;SDS011;10386;54.314;10.022;2023-09-12T06:58:03;63.30;;;26.88;;
20454;SDS011;10386;54.314;10.022;2023-09-12T07:00:30;52.25;;;25.98;;
20454;SDS011;10386;54.314;10.022;2023-09-12T07:02:58;54.55;;;27.48;;
20454;SDS011;10386;54.314;10.022;2023-09-12T07:05:25;53.22;;;27.80;;
20454;SDS011;10386;54.314;10.022;2023-09-12T07:07:52;58.50;;;27.05;;
20454;SDS011;10386;54.314;10.022;2023-09-12T07:10:19;53.50;;;26.65;;
20454;SDS011;10386;54.314;10.022;2023-09-12T07:12:50;53.63;;;27.05;;
20454;SDS011;10386;54.314;10.022;2023-09-12T07:15:17;57.10;;;26.67;;
20454;SDS011;10386;54.314;10.022;2023-09-12T07:17:44;53.42;;;27.48;;
20454;SDS011;10386;54.314;10.022;2023-09-12T07:20:11;51.42;;;25.30;;
20454;SDS011;10386;54.314;10.022;2023-09-12T07:22:38;56.38;;;25.90;;
20454;SDS011;10386;54.314;10.022;2023-09-12T07:25:08;54.15;;;25.25;;
20454;SDS011;10386;54.314;10.022;2023-09-12T07:27:38;52.17;;;24.70;;
20454;SDS011;10386;54.314;10.022;2023-09-12T07:30:05;44.92;;;23.50;;
20454;SDS011;10386;54.314;10.022;2023-09-12T07:32:33;43.90;;;23.55;;
20454;SDS011;10386;54.314;10.022;2023-09-12T07:35:00;44.10;;;23.92;;
20454;SDS011;10386;54.314;10.022;2023-09-12T07:37:28;45.88;;;23.65;;
20454;SDS011;10386;54.314;10.022;2023-09-12T07:39:54;45.33;;;23.70;;
20454;SDS011;10386;54.314;10.022;2023-09-12T07:42:22;44.15;;;23.90;;
20454;SDS011;10386;54.314;10.022;2023-09-12T07:44:50;46.28;;;22.92;;
20454;SDS011;10386;54.314;10.022;2023-09-12T07:47:17;47.17;;;22.60;;
20454;SDS011;10386;54.314;10.022;2023-09-12T07:49:44;46.83;;;23.48;;
20454;SDS011;10386;54.314;10.022;2023-09-12T07:52:11;45.58;;;22.45;;
20454;SDS011;10386;54.314;10.022;2023-09-12T07:54:38;44.13;;;22.35;;
20454;SDS011;10386;54.314;10.022;2023-09-12T07:57:05;46.80;;;23.52;;
20454;SDS011;10386;54.314;10.022;2023-09-12T07:59:31;38.40;;;21.30;;
20454;SDS011;10386;54.314;10.022;2023-09-12T08:02:00;39.63;;;19.98;;
20454;SDS011;10386;54.314;10.022;2023-09-12T08:04:27;35.00;;;19.08;;
20454;SDS011;10386;54.314;10.022;2023-09-12T08:06:54;37.47;;;20.20;;
20454;SDS011;10386;54.314;10.022;2023-09-12T08:09:28;38.92;;;21.42;;
20454;SDS011;10386;54.314;10.022;2023-09-12T08:12:29;42.35;;;21.25;;
20454;SDS011;10386;54.314;10.022;2023-09-12T08:14:56;39.20;;;19.55;;
20454;SDS011;10386;54.314;10.022;2023-09-12T08:17:23;40.78;;;21.08;;
20454;SDS011;10386;54.314;10.022;2023-09-12T08:19:50;39.22;;;20.05;;
20454;SDS011;10386;54.314;10.022;2023-09-12T08:22:16;35.22;;;19.10;;
20454;SDS011;10386;54.314;10.022;2023-09-12T08:24:43;34.28;;;18.35;;
20454;SDS011;10386;54.314;10.022;2023-09-12T08:27:11;32.00;;;18.90;;
20454;SDS011;10386;54.314;10.022;2023-09-12T08:29:38;36.20;;;18.10;;
20454;SDS011;10386;54.314;10.022;2023-09-12T08:32:05;32.03;;;18.25;;
20454;SDS011;10386;54.314;10.022;2023-09-12T08:34:32;28.13;;;16.08;;
20454;SDS011;10386;54.314;10.022;2023-09-12T08:37:00;23.85;;;14.30;;
20454;SDS011;10386;54.314;10.022;2023-09-12T08:39:28;21.95;;;12.63;;
20454;SDS011;10386;54.314;10.022;2023-09-12T08:42:11;22.80;;;13.00;;
20454;SDS011;10386;54.314;10.022;2023-09-12T08:44:41;30.23;;;14.13;;
20454;SDS011;10386;54.314;10.022;2023-09-12T08:47:09;22.17;;;13.27;;
20454;SDS011;10386;54.314;10.022;2023-09-12T08:49:37;25.05;;;13.13;;
20454;SDS011;10386;54.314;10.022;2023-09-12T08:52:05;22.25;;;11.45;;
20454;SDS011;10386;54.314;10.022;2023-09-12T08:54:32;18.52;;;10.98;;
20454;SDS011;10386;54.314;10.022;2023-09-12T08:57:01;22.10;;;13.75;;
20454;SDS011;10386;54.314;10.022;2023-09-12T08:59:31;24.42;;;14.00;;
20454;SDS011;10386;54.314;10.022;2023-09-12T09:01:59;24.50;;;13.15;;
20454;SDS011;10386;54.314;10.022;2023-09-12T09:04:30;25.90;;;13.73;;
20454;SDS011;10386;54.314;10.022;2023-09-12T09:06:59;23.20;;;13.73;;
20454;SDS011;10386;54.314;10.022;2023-09-12T09:09:27;19.70;;;13.40;;
20454;SDS011;10386;54.314;10.022;2023-09-12T09:11:55;25.85;;;15.00;;
20454;SDS011;10386;54.314;10.022;2023-09-12T09:14:22;23.08;;;13.90;;
20454;SDS011;10386;54.314;10.022;2023-09-12T09:16:49;23.38;;;13.30;;
20454;SDS011;10386;54.314;10.022;2023-09-12T09:19:17;22.20;;;12.50;;
20454;SDS011;10386;54.314;10.022;2023-09-12T09:21:45;26.48;;;11.45;;
20454;SDS011;10386;54.314;10.022;2023-09-12T09:24:13;16.48;;;11.07;;
20454;SDS011;10386;54.314;10.022;2023-09-12T09:26:47;17.77;;;10.43;;
20454;SDS011;10386;54.314;10.022;2023-09-12T09:29:20;18.98;;;10.65;;
20454;SDS011;10386;54.314;10.022;2023-09-12T09:31:49;18.15;;;11.10;;
20454;SDS011;10386;54.314;10.022;2023-09-12T09:34:18;16.15;;;11.35;;
20454;SDS011;10386;54.314;10.022;2023-09-12T09:36:50;15.65;;;10.73;;
20454;SDS011;10386;54.314;10.022;2023-09-12T09:39:20;15.68;;;9.85;;
20454;SDS011;10386;54.314;10.022;2023-09-12T09:41:49;13.63;;;9.63;;
20454;SDS011;10386;54.314;10.022;2023-09-12T09:44:18;18.25;;;9.85;;
20454;SDS011;10386;54.314;10.022;2023-09-12T09:46:55;17.00;;;10.50;;
20454;SDS011;10386;54.314;10.022;2023-09-12T09:49:34;11.88;;;8.90;;
20454;SDS011;10386;54.314;10.022;2023-09-12T09:52:04;17.58;;;9.10;;
20454;SDS011;10386;54.314;10.022;2023-09-12T09:54:32;13.43;;;8.68;;
20454;SDS011;10386;54.314;10.022;2023-09-12T09:56:59;12.68;;;8.02;;
20454;SDS011;10386;54.314;10.022;2023-09-12T09:59:27;14.43;;;8.63;;
20454;SDS011;10386;54.314;10.022;2023-09-12T10:01:58;12.02;;;8.55;;
20454;SDS011;10386;54.314;10.022;2023-09-12T10:04:27;15.52;;;9.50;;
20454;SDS011;10386;54.314;10.022;2023-09-12T10:06:55;16.40;;;9.82;;
20454;SDS011;10386;54.314;10.022;2023-09-12T10:09:26;13.82;;;9.13;;
20454;SDS011;10386;54.314;10.022;2023-09-12T10:11:54;15.10;;;8.90;;
20454;SDS011;10386;54.314;10.022;2023-09-12T10:14:22;12.00;;;8.30;;
20454;SDS011;10386;54.314;10.022;2023-09-12T10:16:50;11.43;;;7.72;;
20454;SDS011;10386;54.314;10.022;2023-09-12T10:19:43;12.93;;;7.43;;
20454;SDS011;10386;54.314;10.022;2023-09-12T10:25:03;9.30;;;6.80;;
20454;SDS011;10386;54.314;10.022;2023-09-12T10:27:30;11.25;;;6.97;;
20454;SDS011;10386;54.314;10.022;2023-09-12T10:29:59;11.32;;;7.15;;
20454;SDS011;10386;54.314;10.022;2023-09-12T10:32:28;10.50;;;7.38;;
20454;SDS011;10386;54.314;10.022;2023-09-12T10:34:58;12.85;;;7.15;;
20454;SDS011;10386;54.314;10.022;2023-09-12T10:37:26;10.40;;;6.88;;
20454;SDS011;10386;54.314;10.022;2023-09-12T10:39:54;8.63;;;6.90;;
20454;SDS011;10386;54.314;10.022;2023-09-12T10:42:24;9.75;;;6.60;;
20454;SDS011;10386;54.314;10.022;2023-09-12T10:44:54;12.52;;;7.10;;
20454;SDS011;10386;54.314;10.022;2023-09-12T10:47:24;12.98;;;6.80;;
20454;SDS011;10386;54.314;10.022;2023-09-12T10:49:51;9.02;;;5.75;;
20454;SDS011;10386;54.314;10.022;2023-09-12T10:52:28;9.77;;;5.70;;
20454;SDS011;10386;54.314;10.022;2023-09-12T10:54:56;8.20;;;5.55;;
20454;SDS011;10386;54.314;10.022;2023-09-12T10:57:25;10.02;;;6.53;;
20454;SDS011;10386;54.314;10.022;2023-09-12T11:04:56;13.73;;;6.10;;
20454;SDS011;10386;54.314;10.022;2023-09-12T11:12:47;10.27;;;5.65;;
20454;SDS011;10386;54.314;10.022;2023-09-12T11:15:16;8.25;;;5.32;;
20454;SDS011;10386;54.314;10.022;2023-09-12T11:17:45;6.93;;;4.97;;
20454;SDS011;10386;54.314;10.022;2023-09-12T11:20:16;10.18;;;5.80;;
20454;SDS011;10386;54.314;10.022;2023-09-12T11:22:46;9.00;;;5.20;;
20454;SDS011;10386;54.314;10.022;2023-09-12T11:25:23;8.27;;;5.30;;
20454;SDS011;10386;54.314;10.022;2023-09-12T11:30:23;10.15;;;5.40;;
20454;SDS011;10386;54.314;10.022;2023-09-12T11:32:52;8.48;;;5.20;;
20454;SDS011;10386;54.314;10.022;2023-09-12T11:35:28;8.82;;;5.95;;
20454;SDS011;10386;54.314;10.022;2023-09-12T11:37:59;9.18;;;6.13;;
20454;SDS011;10386;54.314;10.022;2023-09-12T11:43:00;12.40;;;7.35;;
20454;SDS011;10386;54.314;10.022;2023-09-12T11:45:27;10.55;;;6.47;;
20454;SDS011;10386;54.314;10.022;2023-09-12T11:47:54;9.82;;;6.40;;
20454;SDS011;10386;54.314;10.022;2023-09-12T11:50:26;11.80;;;7.70;;
20454;SDS011;10386;54.314;10.022;2023-09-12T11:53:10;10.70;;;7.07;;
20454;SDS011;10386;54.314;10.022;2023-09-12T11:55:45;15.45;;;7.45;;
20454;SDS011;10386;54.314;10.022;2023-09-12T11:58:14;11.48;;;6.68;;
20454;SDS011;10386;54.314;10.022;2023-09-12T12:00:47;10.45;;;7.00;;
20454;SDS011;10386;54.314;10.022;2023-09-12T12:03:21;10.88;;;6.80;;
20454;SDS011;10386;54.314;10.022;2023-09-12T12:05:50;12.90;;;7.35;;
20454;SDS011;10386;54.314;10.022;2023-09-12T12:08:18;13.63;;;7.38;;
20454;SDS011;10386;54.314;10.022;2023-09-12T12:10:49;12.52;;;7.75;;
20454;SDS011;10386;54.314;10.022;2023-09-12T12:13:19;13.55;;;6.22;;
20454;SDS011;10386;54.314;10.022;2023-09-12T12:15:47;7.40;;;5.47;;
20454;SDS011;10386;54.314;10.022;2023-09-12T12:18:15;8.57;;;6.43;;
20454;SDS011;10386;54.314;10.022;2023-09-12T12:20:42;12.52;;;6.90;;
20454;SDS011;10386;54.314;10.022;2023-09-12T12:23:09;11.07;;;6.63;;
20454;SDS011;10386;54.314;10.022;2023-09-12T12:25:37;10.90;;;6.43;;
20454;SDS011;10386;54.314;10.022;2023-09-12T12:28:06;7.72;;;6.30;;
20454;SDS011;10386;54.314;10.022;2023-09-12T12:30:35;10.07;;;6.10;;
20454;SDS011;10386;54.314;10.022;2023-09-12T12:33:07;9.70;;;6.30;;
20454;SDS011;10386;54.314;10.022;2023-09-12T12:36:00;11.43;;;6.45;;
20454;SDS011;10386;54.314;10.022;2023-09-12T12:38:31;10.85;;;6.95;;
20454;SDS011;10386;54.314;10.022;2023-09-12T12:41:06;8.05;;;6.35;;
20454;SDS011;10386;54.314;10.022;2023-09-12T12:43:34;11.43;;;6.40;;
20454;SDS011;10386;54.314;10.022;2023-09-12T12:46:01;9.80;;;6.97;;
20454;SDS011;10386;54.314;10.022;2023-09-12T12:48:33;8.98;;;6.60;;
20454;SDS011;10386;54.314;10.022;2023-09-12T12:53:51;10.32;;;6.75;;
20454;SDS011;10386;54.314;10.022;2023-09-12T12:56:23;17.50;;;7.85;;
20454;SDS011;10386;54.314;10.022;2023-09-12T12:58:58;15.07;;;7.53;;
20454;SDS011;10386;54.314;10.022;2023-09-12T13:01:30;11.77;;;7.85;;
20454;SDS011;10386;54.314;10.022;2023-09-12T13:03:58;13.48;;;8.00;;
20454;SDS011;10386;54.314;10.022;2023-09-12T13:06:25;13.85;;;8.07;;
20454;SDS011;10386;54.314;10.022;2023-09-12T13:08:55;15.30;;;8.52;;
20454;SDS011;10386;54.314;10.022;2023-09-12T13:11:27;13.05;;;9.07;;
20454;SDS011;10386;54.314;10.022;2023-09-12T13:13:54;13.85;;;9.25;;
20454;SDS011;10386;54.314;10.022;2023-09-12T13:16:22;13.07;;;8.65;;
20454;SDS011;10386;54.314;10.022;2023-09-12T13:18:50;15.45;;;10.25;;
20454;SDS011;10386;54.314;10.022;2023-09-12T13:21:17;19.98;;;10.88;;
20454;SDS011;10386;54.314;10.022;2023-09-12T13:23:44;21.30;;;11.05;;
20454;SDS011;10386;54.314;10.022;2023-09-12T13:26:12;18.73;;;10.65;;
20454;SDS011;10386;54.314;10.022;2023-09-12T13:28:40;16.25;;;9.73;;
20454;SDS011;10386;54.314;10.022;2023-09-12T13:31:08;14.93;;;9.52;;
20454;SDS011;10386;54.314;10.022;2023-09-12T13:33:35;16.55;;;9.75;;
20454;SDS011;10386;54.314;10.022;2023-09-12T13:36:03;15.73;;;9.77;;
20454;SDS011;10386;54.314;10.022;2023-09-12T13:38:31;23.25;;;10.63;;
20454;SDS011;10386;54.314;10.022;2023-09-12T13:40:59;13.85;;;10.35;;
20454;SDS011;10386;54.314;10.022;2023-09-12T13:43:27;15.68;;;10.52;;
20454;SDS011;10386;54.314;10.022;2023-09-12T13:45:55;14.93;;;9.57;;
20454;SDS011;10386;54.314;10.022;2023-09-12T13:48:22;16.92;;;10.68;;
20454;SDS011;10386;54.314;10.022;2023-09-12T13:50:49;18.08;;;9.23;;
20454;SDS011;10386;54.314;10.022;2023-09-12T13:53:16;18.08;;;9.40;;
20454;SDS011;10386;54.314;10.022;2023-09-12T13:55:44;13.75;;;9.40;;
20454;SDS011;10386;54.314;10.022;2023-09-12T13:58:27;15.68;;;10.57;;
20454;SDS011;10386;54.314;10.022;2023-09-12T14:01:07;15.95;;;9.95;;
20454;SDS011;10386;54.314;10.022;2023-09-12T14:03:36;13.32;;;9.85;;
20454;SDS011;10386;54.314;10.022;2023-09-12T14:06:04;16.60;;;10.25;;
20454;SDS011;10386;54.314;10.022;2023-09-12T14:08:32;19.90;;;10.77;;
20454;SDS011;10386;54.314;10.022;2023-09-12T14:10:59;15.23;;;10.50;;
20454;SDS011;10386;54.314;10.022;2023-09-12T14:13:27;15.57;;;9.75;;
20454;SDS011;10386;54.314;10.022;2023-09-12T14:15:54;15.15;;;9.48;;
20454;SDS011;10386;54.314;10.022;2023-09-12T14:18:24;13.23;;;8.93;;
20454;SDS011;10386;54.314;10.022;2023-09-12T14:20:52;15.32;;;8.93;;
20454;SDS011;10386;54.314;10.022;2023-09-12T14:23:19;15.73;;;9.23;;
20454;SDS011;10386;54.314;10.022;2023-09-12T14:25:48;17.63;;;8.32;;
20454;SDS011;10386;54.314;10.022;2023-09-12T14:28:15;11.93;;;8.90;;
20454;SDS011;10386;54.314;10.022;2023-09-12T14:30:44;15.38;;;9.10;;
20454;SDS011;10386;54.314;10.022;2023-09-12T14:33:12;16.73;;;8.85;;
20454;SDS011;10386;54.314;10.022;2023-09-12T14:35:43;12.98;;;8.50;;
20454;SDS011;10386;54.314;10.022;2023-09-12T14:38:11;19.05;;;11.93;;
20454;SDS011;10386;54.314;10.022;2023-09-12T14:40:38;17.67;;;11.63;;
20454;SDS011;10386;54.314;10.022;2023-09-12T14:43:10;17.50;;;11.57;;
20454;SDS011;10386;54.314;10.022;2023-09-12T14:45:37;15.63;;;10.65;;